sensor_id;sensor_type;location;lat;lon;timestamp;P1;durP1;ratioP1;P2;durP2;ratioP2
38581;SDS011;24349;53.720;10.014;2023-04-16T00:01:21;25.50;;;18.25;;
38581;SDS011;24349;53.720;10.014;2023-04-16T00:03:47;21.90;;;16.42;;
38581;SDS011;24349;53.720;10.014;2023-04-16T00:06:12;23.70;;;16.38;;
38581;SDS011;24349;53.720;10.014;2023-04-16T00:08:38;24.80;;;17.65;;
38581;SDS011;24349;53.720;10.014;2023-04-16T00:11:05;22.33;;;16.60;;
38581;SDS011;24349;53.720;10.014;2023-04-16T00:13:30;21.98;;;17.23;;
38581;SDS011;24349;53.720;10.014;2023-04-16T00:15:56;22.98;;;16.80;;
38581;SDS011;24349;53.720;10.014;2023-04-16T00:18:23;26.27;;;17.95;;
38581;SDS011;24349;53.720;10.014;2023-04-16T00:20:48;24.73;;;17.25;;
38581;SDS011;24349;53.720;10.014;2023-04-16T00:23:14;24.30;;;16.58;;
38581;SDS011;24349;53.720;10.014;2023-04-16T00:25:41;22.83;;;17.08;;
38581;SDS011;24349;53.720;10.014;2023-04-16T00:28:07;24.60;;;18.20;;
38581;SDS011;24349;53.720;10.014;2023-04-16T00:30:33;23.17;;;18.50;;
38581;SDS011;24349;53.720;10.014;2023-04-16T00:32:59;22.98;;;16.58;;
38581;SDS011;24349;53.720;10.014;2023-04-16T00:35:24;21.77;;;16.38;;
38581;SDS011;24349;53.720;10.014;2023-04-16T00:37:50;23.55;;;17.17;;
38581;SDS011;24349;53.720;10.014;2023-04-16T00:40:16;23.70;;;16.08;;
38581;SDS011;24349;53.720;10.014;2023-04-16T00:42:42;24.23;;;18.38;;
38581;SDS011;24349;53.720;10.014;2023-04-16T00:45:08;25.88;;;19.30;;
38581;SDS011;24349;53.720;10.014;2023-04-16T00:47:34;21.65;;;15.77;;
38581;SDS011;24349;53.720;10.014;2023-04-16T00:50:01;24.08;;;17.75;;
38581;SDS011;24349;53.720;10.014;2023-04-16T00:52:28;22.98;;;16.25;;
38581;SDS011;24349;53.720;10.014;2023-04-16T00:54:55;22.90;;;16.17;;
38581;SDS011;24349;53.720;10.014;2023-04-16T00:57:22;24.23;;;16.65;;
38581;SDS011;24349;53.720;10.014;2023-04-16T00:59:48;23.50;;;17.98;;
38581;SDS011;24349;53.720;10.014;2023-04-16T01:02:14;19.48;;;15.10;;
38581;SDS011;24349;53.720;10.014;2023-04-16T01:04:40;21.35;;;15.38;;
38581;SDS011;24349;53.720;10.014;2023-04-16T01:07:05;21.83;;;16.42;;
38581;SDS011;24349;53.720;10.014;2023-04-16T01:09:31;22.13;;;16.25;;
38581;SDS011;24349;53.720;10.014;2023-04-16T01:11:57;22.45;;;16.85;;
38581;SDS011;24349;53.720;10.014;2023-04-16T01:14:22;21.52;;;16.20;;
38581;SDS011;24349;53.720;10.014;2023-04-16T01:16:48;23.52;;;16.35;;
38581;SDS011;24349;53.720;10.014;2023-04-16T01:19:13;21.15;;;15.07;;
38581;SDS011;24349;53.720;10.014;2023-04-16T01:21:39;21.42;;;17.20;;
38581;SDS011;24349;53.720;10.014;2023-04-16T01:24:05;20.23;;;15.43;;
38581;SDS011;24349;53.720;10.014;2023-04-16T01:26:31;22.83;;;16.33;;
38581;SDS011;24349;53.720;10.014;2023-04-16T01:28:57;21.73;;;15.27;;
38581;SDS011;24349;53.720;10.014;2023-04-16T01:31:24;22.38;;;15.73;;
38581;SDS011;24349;53.720;10.014;2023-04-16T01:33:49;21.10;;;15.75;;
38581;SDS011;24349;53.720;10.014;2023-04-16T01:36:15;21.55;;;16.25;;
38581;SDS011;24349;53.720;10.014;2023-04-16T01:38:41;25.15;;;17.80;;
38581;SDS011;24349;53.720;10.014;2023-04-16T01:41:07;21.25;;;15.77;;
38581;SDS011;24349;53.720;10.014;2023-04-16T01:43:32;19.08;;;14.20;;
38581;SDS011;24349;53.720;10.014;2023-04-16T01:46:06;22.55;;;16.98;;
38581;SDS011;24349;53.720;10.014;2023-04-16T01:48:42;21.17;;;15.68;;
38581;SDS011;24349;53.720;10.014;2023-04-16T01:51:07;24.95;;;18.08;;
38581;SDS011;24349;53.720;10.014;2023-04-16T01:53:34;23.38;;;16.67;;
38581;SDS011;24349;53.720;10.014;2023-04-16T01:56:00;24.42;;;18.52;;
38581;SDS011;24349;53.720;10.014;2023-04-16T01:58:27;22.25;;;17.17;;
38581;SDS011;24349;53.720;10.014;2023-04-16T02:00:53;23.65;;;18.10;;
38581;SDS011;24349;53.720;10.014;2023-04-16T02:03:19;22.95;;;17.55;;
38581;SDS011;24349;53.720;10.014;2023-04-16T02:05:48;19.85;;;15.60;;
38581;SDS011;24349;53.720;10.014;2023-04-16T02:08:15;20.48;;;15.90;;
38581;SDS011;24349;53.720;10.014;2023-04-16T02:10:40;22.77;;;15.55;;
38581;SDS011;24349;53.720;10.014;2023-04-16T02:13:06;24.42;;;17.50;;
38581;SDS011;24349;53.720;10.014;2023-04-16T02:15:31;23.02;;;17.33;;
38581;SDS011;24349;53.720;10.014;2023-04-16T02:17:57;23.23;;;16.95;;
38581;SDS011;24349;53.720;10.014;2023-04-16T02:20:23;26.63;;;20.27;;
38581;SDS011;24349;53.720;10.014;2023-04-16T02:22:48;24.15;;;18.95;;
38581;SDS011;24349;53.720;10.014;2023-04-16T02:25:14;23.10;;;17.73;;
38581;SDS011;24349;53.720;10.014;2023-04-16T02:27:39;23.65;;;19.02;;
38581;SDS011;24349;53.720;10.014;2023-04-16T02:30:05;24.83;;;17.48;;
38581;SDS011;24349;53.720;10.014;2023-04-16T02:32:31;23.35;;;17.38;;
38581;SDS011;24349;53.720;10.014;2023-04-16T02:34:57;26.45;;;19.25;;
38581;SDS011;24349;53.720;10.014;2023-04-16T02:37:23;28.80;;;20.92;;
38581;SDS011;24349;53.720;10.014;2023-04-16T02:39:49;24.17;;;19.25;;
38581;SDS011;24349;53.720;10.014;2023-04-16T02:42:15;24.67;;;18.83;;
38581;SDS011;24349;53.720;10.014;2023-04-16T02:44:41;24.65;;;18.33;;
38581;SDS011;24349;53.720;10.014;2023-04-16T02:47:06;24.83;;;18.33;;
38581;SDS011;24349;53.720;10.014;2023-04-16T02:49:32;24.08;;;15.82;;
38581;SDS011;24349;53.720;10.014;2023-04-16T02:51:59;23.73;;;18.15;;
38581;SDS011;24349;53.720;10.014;2023-04-16T02:54:25;23.10;;;17.20;;
38581;SDS011;24349;53.720;10.014;2023-04-16T02:56:50;22.38;;;16.33;;
38581;SDS011;24349;53.720;10.014;2023-04-16T02:59:16;21.15;;;16.20;;
38581;SDS011;24349;53.720;10.014;2023-04-16T03:01:42;23.38;;;17.70;;
38581;SDS011;24349;53.720;10.014;2023-04-16T03:04:08;22.50;;;16.15;;
38581;SDS011;24349;53.720;10.014;2023-04-16T03:06:33;25.80;;;19.80;;
38581;SDS011;24349;53.720;10.014;2023-04-16T03:08:59;25.00;;;17.67;;
38581;SDS011;24349;53.720;10.014;2023-04-16T03:11:25;24.65;;;18.30;;
38581;SDS011;24349;53.720;10.014;2023-04-16T03:13:50;22.27;;;16.67;;
38581;SDS011;24349;53.720;10.014;2023-04-16T03:16:16;22.23;;;16.77;;
38581;SDS011;24349;53.720;10.014;2023-04-16T03:18:42;22.95;;;16.55;;
38581;SDS011;24349;53.720;10.014;2023-04-16T03:21:07;22.08;;;16.42;;
38581;SDS011;24349;53.720;10.014;2023-04-16T03:23:33;24.40;;;17.10;;
38581;SDS011;24349;53.720;10.014;2023-04-16T03:25:59;20.50;;;15.10;;
38581;SDS011;24349;53.720;10.014;2023-04-16T03:28:25;22.63;;;16.25;;
38581;SDS011;24349;53.720;10.014;2023-04-16T03:30:51;22.48;;;15.70;;
38581;SDS011;24349;53.720;10.014;2023-04-16T03:33:17;24.52;;;16.27;;
38581;SDS011;24349;53.720;10.014;2023-04-16T03:35:44;24.35;;;17.92;;
38581;SDS011;24349;53.720;10.014;2023-04-16T03:38:09;20.13;;;15.25;;
38581;SDS011;24349;53.720;10.014;2023-04-16T03:40:36;20.98;;;16.38;;
38581;SDS011;24349;53.720;10.014;2023-04-16T03:43:01;23.20;;;15.90;;
38581;SDS011;24349;53.720;10.014;2023-04-16T03:45:27;22.35;;;15.90;;
38581;SDS011;24349;53.720;10.014;2023-04-16T03:47:52;22.70;;;16.33;;
38581;SDS011;24349;53.720;10.014;2023-04-16T03:50:18;21.42;;;15.35;;
38581;SDS011;24349;53.720;10.014;2023-04-16T03:52:44;22.02;;;15.85;;
38581;SDS011;24349;53.720;10.014;2023-04-16T03:55:11;24.02;;;15.90;;
38581;SDS011;24349;53.720;10.014;2023-04-16T03:57:37;22.15;;;16.20;;
38581;SDS011;24349;53.720;10.014;2023-04-16T04:00:03;24.02;;;15.35;;
38581;SDS011;24349;53.720;10.014;2023-04-16T04:02:29;21.40;;;13.90;;
38581;SDS011;24349;53.720;10.014;2023-04-16T04:04:55;22.38;;;16.15;;
38581;SDS011;24349;53.720;10.014;2023-04-16T04:07:20;21.98;;;15.88;;
38581;SDS011;24349;53.720;10.014;2023-04-16T04:09:46;21.48;;;15.55;;
38581;SDS011;24349;53.720;10.014;2023-04-16T04:12:11;20.17;;;14.40;;
38581;SDS011;24349;53.720;10.014;2023-04-16T04:14:37;21.10;;;15.15;;
38581;SDS011;24349;53.720;10.014;2023-04-16T04:17:04;24.30;;;16.77;;
38581;SDS011;24349;53.720;10.014;2023-04-16T04:19:30;23.83;;;16.40;;
38581;SDS011;24349;53.720;10.014;2023-04-16T04:21:56;22.48;;;15.98;;
38581;SDS011;24349;53.720;10.014;2023-04-16T04:24:21;23.00;;;15.52;;
38581;SDS011;24349;53.720;10.014;2023-04-16T04:26:47;22.17;;;17.15;;
38581;SDS011;24349;53.720;10.014;2023-04-16T04:29:12;23.83;;;15.88;;
38581;SDS011;24349;53.720;10.014;2023-04-16T04:31:38;20.13;;;14.52;;
38581;SDS011;24349;53.720;10.014;2023-04-16T04:34:03;23.25;;;16.95;;
38581;SDS011;24349;53.720;10.014;2023-04-16T04:36:29;25.38;;;17.05;;
38581;SDS011;24349;53.720;10.014;2023-04-16T04:38:56;21.13;;;15.75;;
38581;SDS011;24349;53.720;10.014;2023-04-16T04:41:22;22.60;;;17.73;;
38581;SDS011;24349;53.720;10.014;2023-04-16T04:43:48;24.70;;;18.23;;
38581;SDS011;24349;53.720;10.014;2023-04-16T04:46:13;23.48;;;17.75;;
38581;SDS011;24349;53.720;10.014;2023-04-16T04:48:39;30.15;;;18.88;;
38581;SDS011;24349;53.720;10.014;2023-04-16T04:51:05;20.48;;;16.10;;
38581;SDS011;24349;53.720;10.014;2023-04-16T04:53:30;22.33;;;16.92;;
38581;SDS011;24349;53.720;10.014;2023-04-16T04:55:56;24.27;;;18.33;;
38581;SDS011;24349;53.720;10.014;2023-04-16T04:58:22;24.52;;;16.85;;
38581;SDS011;24349;53.720;10.014;2023-04-16T05:00:47;22.42;;;16.02;;
38581;SDS011;24349;53.720;10.014;2023-04-16T05:03:15;22.63;;;17.27;;
38581;SDS011;24349;53.720;10.014;2023-04-16T05:05:44;25.13;;;19.25;;
38581;SDS011;24349;53.720;10.014;2023-04-16T05:08:09;24.05;;;16.30;;
38581;SDS011;24349;53.720;10.014;2023-04-16T05:10:35;22.90;;;16.80;;
38581;SDS011;24349;53.720;10.014;2023-04-16T05:13:01;22.65;;;15.55;;
38581;SDS011;24349;53.720;10.014;2023-04-16T05:15:26;22.48;;;17.13;;
38581;SDS011;24349;53.720;10.014;2023-04-16T05:17:52;24.45;;;18.13;;
38581;SDS011;24349;53.720;10.014;2023-04-16T05:20:19;23.00;;;17.48;;
38581;SDS011;24349;53.720;10.014;2023-04-16T05:22:46;24.20;;;17.42;;
38581;SDS011;24349;53.720;10.014;2023-04-16T05:25:12;25.77;;;17.15;;
38581;SDS011;24349;53.720;10.014;2023-04-16T05:27:37;23.58;;;17.73;;
38581;SDS011;24349;53.720;10.014;2023-04-16T05:30:03;22.38;;;15.85;;
38581;SDS011;24349;53.720;10.014;2023-04-16T05:32:29;23.70;;;16.75;;
38581;SDS011;24349;53.720;10.014;2023-04-16T05:34:55;27.77;;;19.50;;
38581;SDS011;24349;53.720;10.014;2023-04-16T05:37:20;23.45;;;16.88;;
38581;SDS011;24349;53.720;10.014;2023-04-16T05:39:46;26.42;;;18.63;;
38581;SDS011;24349;53.720;10.014;2023-04-16T05:42:12;22.63;;;18.38;;
38581;SDS011;24349;53.720;10.014;2023-04-16T05:44:37;25.92;;;18.52;;
38581;SDS011;24349;53.720;10.014;2023-04-16T05:47:04;23.80;;;17.58;;
38581;SDS011;24349;53.720;10.014;2023-04-16T05:49:31;21.00;;;16.30;;
38581;SDS011;24349;53.720;10.014;2023-04-16T05:51:56;24.65;;;17.63;;
38581;SDS011;24349;53.720;10.014;2023-04-16T05:54:22;23.45;;;16.50;;
38581;SDS011;24349;53.720;10.014;2023-04-16T05:56:48;25.42;;;17.80;;
38581;SDS011;24349;53.720;10.014;2023-04-16T05:59:13;23.95;;;17.05;;
38581;SDS011;24349;53.720;10.014;2023-04-16T06:01:39;26.38;;;17.42;;
38581;SDS011;24349;53.720;10.014;2023-04-16T06:04:05;22.60;;;17.10;;
38581;SDS011;24349;53.720;10.014;2023-04-16T06:06:31;25.20;;;17.10;;
38581;SDS011;24349;53.720;10.014;2023-04-16T06:08:56;21.38;;;16.08;;
38581;SDS011;24349;53.720;10.014;2023-04-16T06:11:22;23.10;;;16.58;;
38581;SDS011;24349;53.720;10.014;2023-04-16T06:13:48;26.27;;;18.88;;
38581;SDS011;24349;53.720;10.014;2023-04-16T06:16:13;23.60;;;17.45;;
38581;SDS011;24349;53.720;10.014;2023-04-16T06:18:39;23.77;;;17.27;;
38581;SDS011;24349;53.720;10.014;2023-04-16T06:21:04;22.63;;;16.30;;
38581;SDS011;24349;53.720;10.014;2023-04-16T06:23:30;22.30;;;17.13;;
38581;SDS011;24349;53.720;10.014;2023-04-16T06:25:56;25.35;;;16.95;;
38581;SDS011;24349;53.720;10.014;2023-04-16T06:28:24;20.90;;;15.82;;
38581;SDS011;24349;53.720;10.014;2023-04-16T06:30:49;24.33;;;17.33;;
38581;SDS011;24349;53.720;10.014;2023-04-16T06:33:15;23.52;;;16.45;;
38581;SDS011;24349;53.720;10.014;2023-04-16T06:35:41;22.30;;;15.77;;
38581;SDS011;24349;53.720;10.014;2023-04-16T06:38:06;21.02;;;15.48;;
38581;SDS011;24349;53.720;10.014;2023-04-16T06:40:32;20.70;;;15.77;;
38581;SDS011;24349;53.720;10.014;2023-04-16T06:42:58;21.90;;;16.38;;
38581;SDS011;24349;53.720;10.014;2023-04-16T06:45:24;21.60;;;15.63;;
38581;SDS011;24349;53.720;10.014;2023-04-16T06:47:49;22.88;;;16.15;;
38581;SDS011;24349;53.720;10.014;2023-04-16T06:50:16;19.60;;;14.98;;
38581;SDS011;24349;53.720;10.014;2023-04-16T06:52:42;22.88;;;15.63;;
38581;SDS011;24349;53.720;10.014;2023-04-16T06:55:08;20.20;;;13.80;;
38581;SDS011;24349;53.720;10.014;2023-04-16T06:57:34;20.25;;;14.43;;
38581;SDS011;24349;53.720;10.014;2023-04-16T07:00:00;20.52;;;14.63;;
38581;SDS011;24349;53.720;10.014;2023-04-16T07:02:26;20.70;;;14.40;;
38581;SDS011;24349;53.720;10.014;2023-04-16T07:04:52;20.38;;;15.27;;
38581;SDS011;24349;53.720;10.014;2023-04-16T07:07:18;20.23;;;15.02;;
38581;SDS011;24349;53.720;10.014;2023-04-16T07:09:43;20.23;;;14.63;;
38581;SDS011;24349;53.720;10.014;2023-04-16T07:12:09;20.45;;;14.98;;
38581;SDS011;24349;53.720;10.014;2023-04-16T07:14:35;21.10;;;14.10;;
38581;SDS011;24349;53.720;10.014;2023-04-16T07:17:01;19.38;;;15.25;;
38581;SDS011;24349;53.720;10.014;2023-04-16T07:19:26;19.50;;;15.00;;
38581;SDS011;24349;53.720;10.014;2023-04-16T07:21:56;19.90;;;14.90;;
38581;SDS011;24349;53.720;10.014;2023-04-16T07:24:25;18.33;;;14.15;;
38581;SDS011;24349;53.720;10.014;2023-04-16T07:26:50;20.55;;;14.60;;
38581;SDS011;24349;53.720;10.014;2023-04-16T07:29:16;18.55;;;14.00;;
38581;SDS011;24349;53.720;10.014;2023-04-16T07:31:42;18.10;;;14.35;;
38581;SDS011;24349;53.720;10.014;2023-04-16T07:34:08;21.27;;;15.43;;
38581;SDS011;24349;53.720;10.014;2023-04-16T07:36:34;16.75;;;12.63;;
38581;SDS011;24349;53.720;10.014;2023-04-16T07:39:00;21.40;;;14.98;;
38581;SDS011;24349;53.720;10.014;2023-04-16T07:41:26;19.73;;;14.68;;
38581;SDS011;24349;53.720;10.014;2023-04-16T07:43:53;17.73;;;13.52;;
38581;SDS011;24349;53.720;10.014;2023-04-16T07:46:19;18.52;;;13.57;;
38581;SDS011;24349;53.720;10.014;2023-04-16T07:48:45;15.80;;;12.40;;
38581;SDS011;24349;53.720;10.014;2023-04-16T07:51:11;19.05;;;13.82;;
38581;SDS011;24349;53.720;10.014;2023-04-16T07:53:37;19.95;;;14.18;;
38581;SDS011;24349;53.720;10.014;2023-04-16T07:56:02;18.52;;;14.25;;
38581;SDS011;24349;53.720;10.014;2023-04-16T07:58:28;18.88;;;14.30;;
38581;SDS011;24349;53.720;10.014;2023-04-16T08:00:54;17.50;;;14.18;;
38581;SDS011;24349;53.720;10.014;2023-04-16T08:03:19;21.40;;;14.35;;
38581;SDS011;24349;53.720;10.014;2023-04-16T08:05:45;18.30;;;12.98;;
38581;SDS011;24349;53.720;10.014;2023-04-16T08:08:11;18.80;;;14.07;;
38581;SDS011;24349;53.720;10.014;2023-04-16T08:10:37;16.27;;;12.70;;
38581;SDS011;24349;53.720;10.014;2023-04-16T08:13:03;18.50;;;13.50;;
38581;SDS011;24349;53.720;10.014;2023-04-16T08:15:29;19.70;;;12.90;;
38581;SDS011;24349;53.720;10.014;2023-04-16T08:17:55;17.88;;;13.90;;
38581;SDS011;24349;53.720;10.014;2023-04-16T08:20:21;20.08;;;12.60;;
38581;SDS011;24349;53.720;10.014;2023-04-16T08:22:47;18.73;;;14.18;;
38581;SDS011;24349;53.720;10.014;2023-04-16T08:25:13;17.50;;;13.95;;
38581;SDS011;24349;53.720;10.014;2023-04-16T08:27:39;19.17;;;14.18;;
38581;SDS011;24349;53.720;10.014;2023-04-16T08:30:04;18.73;;;13.88;;
38581;SDS011;24349;53.720;10.014;2023-04-16T08:32:31;16.50;;;12.48;;
38581;SDS011;24349;53.720;10.014;2023-04-16T08:34:57;19.67;;;13.32;;
38581;SDS011;24349;53.720;10.014;2023-04-16T08:37:23;17.48;;;12.93;;
38581;SDS011;24349;53.720;10.014;2023-04-16T08:39:50;15.90;;;13.07;;
38581;SDS011;24349;53.720;10.014;2023-04-16T08:42:29;17.80;;;12.88;;
38581;SDS011;24349;53.720;10.014;2023-04-16T08:45:05;16.75;;;13.07;;
38581;SDS011;24349;53.720;10.014;2023-04-16T08:47:33;16.38;;;13.35;;
38581;SDS011;24349;53.720;10.014;2023-04-16T08:50:03;18.48;;;13.13;;
38581;SDS011;24349;53.720;10.014;2023-04-16T08:52:30;16.05;;;12.70;;
38581;SDS011;24349;53.720;10.014;2023-04-16T08:57:34;16.10;;;12.23;;
38581;SDS011;24349;53.720;10.014;2023-04-16T09:00:12;18.25;;;12.23;;
38581;SDS011;24349;53.720;10.014;2023-04-16T09:02:38;15.70;;;12.43;;
38581;SDS011;24349;53.720;10.014;2023-04-16T09:05:05;15.40;;;12.20;;
38581;SDS011;24349;53.720;10.014;2023-04-16T09:07:32;18.83;;;11.75;;
38581;SDS011;24349;53.720;10.014;2023-04-16T09:09:58;15.90;;;11.85;;
38581;SDS011;24349;53.720;10.014;2023-04-16T09:12:25;16.85;;;12.80;;
38581;SDS011;24349;53.720;10.014;2023-04-16T09:14:51;16.05;;;12.65;;
38581;SDS011;24349;53.720;10.014;2023-04-16T09:17:17;14.98;;;12.15;;
38581;SDS011;24349;53.720;10.014;2023-04-16T09:19:44;17.10;;;12.68;;
38581;SDS011;24349;53.720;10.014;2023-04-16T09:22:10;15.55;;;12.15;;
38581;SDS011;24349;53.720;10.014;2023-04-16T09:24:39;15.65;;;12.68;;
38581;SDS011;24349;53.720;10.014;2023-04-16T09:27:06;16.05;;;11.15;;
38581;SDS011;24349;53.720;10.014;2023-04-16T09:29:36;19.67;;;12.85;;
38581;SDS011;24349;53.720;10.014;2023-04-16T09:32:04;18.85;;;12.50;;
38581;SDS011;24349;53.720;10.014;2023-04-16T09:34:35;14.95;;;11.77;;
38581;SDS011;24349;53.720;10.014;2023-04-16T09:37:29;15.20;;;12.35;;
38581;SDS011;24349;53.720;10.014;2023-04-16T09:40:02;16.90;;;12.33;;
38581;SDS011;24349;53.720;10.014;2023-04-16T09:42:29;17.27;;;12.93;;
38581;SDS011;24349;53.720;10.014;2023-04-16T09:44:57;16.80;;;13.18;;
38581;SDS011;24349;53.720;10.014;2023-04-16T09:47:40;15.68;;;12.63;;
38581;SDS011;24349;53.720;10.014;2023-04-16T09:50:08;18.52;;;13.48;;
38581;SDS011;24349;53.720;10.014;2023-04-16T09:52:35;16.08;;;12.77;;
38581;SDS011;24349;53.720;10.014;2023-04-16T09:55:04;18.80;;;13.07;;
38581;SDS011;24349;53.720;10.014;2023-04-16T09:57:30;15.68;;;12.77;;
38581;SDS011;24349;53.720;10.014;2023-04-16T10:00:06;17.10;;;12.55;;
38581;SDS011;24349;53.720;10.014;2023-04-16T10:02:38;16.92;;;12.23;;
38581;SDS011;24349;53.720;10.014;2023-04-16T10:05:05;17.02;;;12.35;;
38581;SDS011;24349;53.720;10.014;2023-04-16T10:07:35;15.73;;;11.75;;
38581;SDS011;24349;53.720;10.014;2023-04-16T10:10:01;17.02;;;13.38;;
38581;SDS011;24349;53.720;10.014;2023-04-16T10:12:28;17.60;;;13.73;;
38581;SDS011;24349;53.720;10.014;2023-04-16T10:14:56;18.27;;;14.82;;
38581;SDS011;24349;53.720;10.014;2023-04-16T10:17:22;19.20;;;14.05;;
38581;SDS011;24349;53.720;10.014;2023-04-16T10:19:49;17.58;;;14.15;;
38581;SDS011;24349;53.720;10.014;2023-04-16T10:22:15;18.38;;;14.38;;
38581;SDS011;24349;53.720;10.014;2023-04-16T10:24:40;19.42;;;14.35;;
38581;SDS011;24349;53.720;10.014;2023-04-16T10:27:07;20.85;;;15.82;;
38581;SDS011;24349;53.720;10.014;2023-04-16T10:29:33;19.23;;;13.93;;
38581;SDS011;24349;53.720;10.014;2023-04-16T10:32:00;18.35;;;14.00;;
38581;SDS011;24349;53.720;10.014;2023-04-16T10:34:26;18.15;;;13.18;;
38581;SDS011;24349;53.720;10.014;2023-04-16T10:36:53;21.38;;;14.93;;
38581;SDS011;24349;53.720;10.014;2023-04-16T10:39:23;17.48;;;14.35;;
38581;SDS011;24349;53.720;10.014;2023-04-16T10:42:05;18.50;;;13.30;;
38581;SDS011;24349;53.720;10.014;2023-04-16T10:44:35;18.27;;;13.68;;
38581;SDS011;24349;53.720;10.014;2023-04-16T10:47:01;19.42;;;13.68;;
38581;SDS011;24349;53.720;10.014;2023-04-16T10:49:27;18.73;;;15.05;;
38581;SDS011;24349;53.720;10.014;2023-04-16T10:54:27;20.90;;;15.52;;
38581;SDS011;24349;53.720;10.014;2023-04-16T10:56:55;20.08;;;16.67;;
38581;SDS011;24349;53.720;10.014;2023-04-16T10:59:25;21.65;;;17.38;;
38581;SDS011;24349;53.720;10.014;2023-04-16T11:01:55;18.10;;;13.60;;
38581;SDS011;24349;53.720;10.014;2023-04-16T11:12:06;19.30;;;14.65;;
38581;SDS011;24349;53.720;10.014;2023-04-16T11:14:35;18.88;;;13.57;;
38581;SDS011;24349;53.720;10.014;2023-04-16T11:17:04;17.88;;;13.30;;
38581;SDS011;24349;53.720;10.014;2023-04-16T11:19:30;20.77;;;14.93;;
38581;SDS011;24349;53.720;10.014;2023-04-16T11:21:56;17.45;;;13.65;;
38581;SDS011;24349;53.720;10.014;2023-04-16T11:24:23;19.77;;;15.20;;
38581;SDS011;24349;53.720;10.014;2023-04-16T11:26:53;20.63;;;14.45;;
38581;SDS011;24349;53.720;10.014;2023-04-16T11:29:19;17.27;;;14.13;;
38581;SDS011;24349;53.720;10.014;2023-04-16T11:31:51;17.30;;;14.85;;
38581;SDS011;24349;53.720;10.014;2023-04-16T11:34:17;18.92;;;15.13;;
38581;SDS011;24349;53.720;10.014;2023-04-16T11:36:47;17.83;;;13.93;;
38581;SDS011;24349;53.720;10.014;2023-04-16T11:39:14;16.88;;;13.73;;
38581;SDS011;24349;53.720;10.014;2023-04-16T11:41:47;19.63;;;13.85;;
38581;SDS011;24349;53.720;10.014;2023-04-16T11:44:20;18.90;;;15.40;;
38581;SDS011;24349;53.720;10.014;2023-04-16T11:46:48;17.23;;;13.85;;
38581;SDS011;24349;53.720;10.014;2023-04-16T11:49:14;17.85;;;13.02;;
38581;SDS011;24349;53.720;10.014;2023-04-16T11:51:42;20.27;;;13.45;;
38581;SDS011;24349;53.720;10.014;2023-04-16T11:54:18;23.88;;;14.20;;
38581;SDS011;24349;53.720;10.014;2023-04-16T11:56:46;18.17;;;13.75;;
38581;SDS011;24349;53.720;10.014;2023-04-16T11:59:13;20.80;;;13.55;;
38581;SDS011;24349;53.720;10.014;2023-04-16T12:01:41;18.95;;;13.30;;
38581;SDS011;24349;53.720;10.014;2023-04-16T12:04:10;18.67;;;13.82;;
38581;SDS011;24349;53.720;10.014;2023-04-16T12:06:35;17.58;;;13.43;;
38581;SDS011;24349;53.720;10.014;2023-04-16T12:09:21;18.50;;;13.02;;
38581;SDS011;24349;53.720;10.014;2023-04-16T12:11:47;16.27;;;14.10;;
38581;SDS011;24349;53.720;10.014;2023-04-16T12:14:13;17.73;;;13.93;;
38581;SDS011;24349;53.720;10.014;2023-04-16T12:16:42;41.72;;;15.98;;
38581;SDS011;24349;53.720;10.014;2023-04-16T12:19:09;16.80;;;13.18;;
38581;SDS011;24349;53.720;10.014;2023-04-16T12:24:06;18.23;;;13.50;;
38581;SDS011;24349;53.720;10.014;2023-04-16T12:26:45;16.73;;;13.13;;
38581;SDS011;24349;53.720;10.014;2023-04-16T12:29:23;19.92;;;13.95;;
38581;SDS011;24349;53.720;10.014;2023-04-16T12:31:50;21.88;;;15.27;;
38581;SDS011;24349;53.720;10.014;2023-04-16T12:34:18;19.48;;;13.70;;
38581;SDS011;24349;53.720;10.014;2023-04-16T12:36:45;22.70;;;16.27;;
38581;SDS011;24349;53.720;10.014;2023-04-16T12:39:12;18.83;;;13.70;;
38581;SDS011;24349;53.720;10.014;2023-04-16T12:41:39;17.90;;;13.70;;
38581;SDS011;24349;53.720;10.014;2023-04-16T12:44:15;19.60;;;13.38;;
38581;SDS011;24349;53.720;10.014;2023-04-16T12:46:42;19.08;;;12.98;;
38581;SDS011;24349;53.720;10.014;2023-04-16T12:49:08;17.80;;;13.75;;
38581;SDS011;24349;53.720;10.014;2023-04-16T12:51:35;19.55;;;14.10;;
38581;SDS011;24349;53.720;10.014;2023-04-16T12:54:02;18.65;;;14.00;;
38581;SDS011;24349;53.720;10.014;2023-04-16T12:56:30;20.25;;;14.77;;
38581;SDS011;24349;53.720;10.014;2023-04-16T12:58:55;16.65;;;13.82;;
38581;SDS011;24349;53.720;10.014;2023-04-16T13:01:22;16.92;;;13.55;;
38581;SDS011;24349;53.720;10.014;2023-04-16T13:03:48;19.30;;;14.70;;
38581;SDS011;24349;53.720;10.014;2023-04-16T13:06:14;14.93;;;12.93;;
38581;SDS011;24349;53.720;10.014;2023-04-16T13:08:41;20.58;;;14.10;;
38581;SDS011;24349;53.720;10.014;2023-04-16T13:11:08;21.67;;;15.50;;
38581;SDS011;24349;53.720;10.014;2023-04-16T13:13:34;18.33;;;14.88;;
38581;SDS011;24349;53.720;10.014;2023-04-16T13:16:00;20.88;;;15.70;;
38581;SDS011;24349;53.720;10.014;2023-04-16T13:18:28;17.75;;;14.30;;
38581;SDS011;24349;53.720;10.014;2023-04-16T13:20:53;16.83;;;14.20;;
38581;SDS011;24349;53.720;10.014;2023-04-16T13:23:19;19.92;;;13.23;;
38581;SDS011;24349;53.720;10.014;2023-04-16T13:25:45;16.95;;;13.73;;
38581;SDS011;24349;53.720;10.014;2023-04-16T13:28:11;16.90;;;14.85;;
38581;SDS011;24349;53.720;10.014;2023-04-16T13:30:36;16.55;;;14.50;;
38581;SDS011;24349;53.720;10.014;2023-04-16T13:33:02;16.08;;;13.10;;
38581;SDS011;24349;53.720;10.014;2023-04-16T13:35:28;19.33;;;14.05;;
38581;SDS011;24349;53.720;10.014;2023-04-16T13:37:54;17.08;;;14.40;;
38581;SDS011;24349;53.720;10.014;2023-04-16T13:40:20;17.60;;;14.80;;
38581;SDS011;24349;53.720;10.014;2023-04-16T13:42:46;20.88;;;14.27;;
38581;SDS011;24349;53.720;10.014;2023-04-16T13:45:11;19.25;;;14.27;;
38581;SDS011;24349;53.720;10.014;2023-04-16T13:47:38;17.88;;;13.57;;
38581;SDS011;24349;53.720;10.014;2023-04-16T13:50:05;17.58;;;13.35;;
38581;SDS011;24349;53.720;10.014;2023-04-16T13:52:31;18.23;;;15.52;;
38581;SDS011;24349;53.720;10.014;2023-04-16T13:54:57;17.35;;;13.13;;
38581;SDS011;24349;53.720;10.014;2023-04-16T13:57:23;18.52;;;14.10;;
38581;SDS011;24349;53.720;10.014;2023-04-16T13:59:48;17.50;;;12.77;;
38581;SDS011;24349;53.720;10.014;2023-04-16T14:02:14;17.60;;;14.52;;
38581;SDS011;24349;53.720;10.014;2023-04-16T14:04:40;16.75;;;12.77;;
38581;SDS011;24349;53.720;10.014;2023-04-16T14:07:06;20.08;;;13.32;;
38581;SDS011;24349;53.720;10.014;2023-04-16T14:09:31;16.00;;;13.18;;
38581;SDS011;24349;53.720;10.014;2023-04-16T14:11:57;19.58;;;13.93;;
38581;SDS011;24349;53.720;10.014;2023-04-16T14:14:23;17.35;;;14.20;;
38581;SDS011;24349;53.720;10.014;2023-04-16T14:16:49;19.67;;;16.15;;
38581;SDS011;24349;53.720;10.014;2023-04-16T14:19:15;16.77;;;12.48;;
38581;SDS011;24349;53.720;10.014;2023-04-16T14:21:41;17.88;;;13.88;;